Weather History for Lexington, NE

Change the Weather History Date:

Saturday, January 19, 2013

  Actual Average Record
Temperature  
Mean Temperature 42 °F -  
Max Temperature 58 °F 37 °F 66 °F (2014)
Min Temperature 25 °F 14 °F -2 °F (2008)
Degree Days  
Heating Degree Days 24    
Moisture  
Dew Point 21 °F    
Average Humidity 57    
Maximum Humidity 82    
Minimum Humidity 21    
Precipitation  
Precipitation 0.00 in - - ()
Sea Level Pressure  
Sea Level Pressure 30.10 in    
Wind  
Wind Speed 10 mph (NW)    
Max Wind Speed 22 mph    
Max Gust Speed 29 mph    
Visibility 10 miles    
Events      
Averages and records for this station are not official NWS values.
T = Trace of Precipitation, MM = Missing Value Source: NWS Daily Summary

Daily Weather History Graph

Daily Weather History Graph

Search for Another Location

Airport:

Trip Planner

Search our weather history database for the weather conditions in past years. The results will help you decide how hot, cold, wet, or windy it might be!

Date:

Astronomy

Jan. 19, 2013 Rise Set
Actual Time 7:59 AM CST 5:41 PM CST
Civil Twilight 7:29 AM CST 6:11 PM CST
Nautical Twilight 6:55 AM CST 6:44 PM CST
Astronomical Twilight 6:23 AM CST 7:17 PM CST
Moon 12:08 PM CST (1/19) 1:34 AM CST (1/19)
Length of Visible Light 10h 41m
Length of Day
9h 42m
First Quarter, 57% of the Moon is Illuminated
Jan 19
First Quarter
Jan 26
Full
Feb 3
Last Quarter
Feb 10
New
Feb 17
First Quarter

Hourly Weather History & Observations

Time (CST) Temp. Windchill Dew Point Humidity Pressure Visibility Wind Dir Wind Speed Gust Speed Precip Events Conditions
12:15 AM 28.9 °F 21.9 °F 21.0 °F 72% 29.92 in 10.0 mi West 6.9 mph - N/A   Clear
12:35 AM 27.0 °F 19.5 °F 20.5 °F 77% 29.92 in 10.0 mi WNW 6.9 mph - N/A   Clear
12:55 AM 25.2 °F 18.3 °F 20.1 °F 81% 29.92 in 10.0 mi WNW 5.8 mph - N/A   Clear
1:15 AM 25.3 °F 16.7 °F 20.3 °F 81% 29.92 in 10.0 mi NNW 8.1 mph - N/A   Clear
1:35 AM 27.5 °F 19.3 °F 20.7 °F 75% 29.92 in 10.0 mi WNW 8.1 mph - N/A   Clear
1:55 AM 27.0 °F 18.0 °F 20.8 °F 78% 29.92 in 10.0 mi WNW 9.2 mph - N/A   Clear
2:15 AM 27.5 °F 18.6 °F 21.0 °F 77% 29.93 in 10.0 mi WNW 9.2 mph - N/A   Clear
2:35 AM 26.2 °F 18.6 °F 19.9 °F 77% 29.94 in 10.0 mi West 6.9 mph - N/A   Clear
2:55 AM 27.0 °F 18.0 °F 19.9 °F 75% 29.94 in 10.0 mi WNW 9.2 mph - N/A   Clear
3:15 AM 27.5 °F 18.6 °F 20.5 °F 75% 29.95 in 10.0 mi West 9.2 mph - N/A   Clear
3:35 AM 27.5 °F 18.6 °F 20.8 °F 76% 29.96 in 10.0 mi West 9.2 mph - N/A   Clear
3:55 AM 28.8 °F 22.6 °F 21.7 °F 75% 29.95 in 10.0 mi NW 5.8 mph - N/A   Clear
4:15 AM 28.4 °F 19.7 °F 22.1 °F 77% 29.95 in 10.0 mi WNW 9.2 mph - N/A   Clear
4:35 AM 29.3 °F 20.8 °F 22.6 °F 76% 29.96 in 10.0 mi WNW 9.2 mph - N/A   Clear
4:55 AM 30.4 °F 21.0 °F 23.0 °F 74% 29.97 in 10.0 mi WNW 11.5 mph - N/A   Clear
5:15 AM 32.4 °F 23.0 °F 23.0 °F 68% 29.97 in 10.0 mi WNW 12.7 mph - N/A   Clear
5:35 AM 32.0 °F 24.8 °F 22.8 °F 69% 29.97 in 10.0 mi WNW 8.1 mph - N/A   Clear
5:55 AM 30.2 °F 20.8 °F 22.5 °F 73% 29.98 in 10.0 mi WNW 11.5 mph - N/A   Clear
7:15 AM 31.5 °F 21.8 °F 22.3 °F 69% 30.02 in 10.0 mi WNW 12.7 mph - N/A   Clear
7:55 AM 31.3 °F 20.7 °F 22.5 °F 70% 30.05 in 10.0 mi WNW 15.0 mph - N/A   Clear
8:15 AM 30.9 °F 21.7 °F 22.1 °F 70% 30.06 in 10.0 mi WNW 11.5 mph - N/A   Clear
8:35 AM 31.1 °F 21.9 °F 22.5 °F 70% 30.06 in 10.0 mi WNW 11.5 mph - N/A   Clear
9:35 AM 37.0 °F 28.9 °F 23.5 °F 58% 30.10 in 10.0 mi WNW 12.7 mph - N/A   Clear
9:55 AM 38.5 °F 30.3 °F 23.9 °F 56% 30.11 in 10.0 mi WNW 13.8 mph - N/A   Clear
10:15 AM 40.6 °F 32.3 °F 23.9 °F 51% 30.12 in 10.0 mi WNW 16.1 mph - N/A   Clear
10:35 AM 43.5 °F 35.8 °F 23.5 °F 45% 30.13 in 10.0 mi WNW 17.3 mph - N/A   Clear
10:55 AM 45.3 °F 38.1 °F 23.2 °F 42% 30.13 in 10.0 mi WNW 17.3 mph 24.2 mph N/A   Clear
11:15 AM 46.4 °F 39.5 °F 22.8 °F 39% 30.13 in 10.0 mi WNW 17.3 mph - N/A   Clear
11:35 AM 47.8 °F - 23.0 °F 38% 30.13 in 10.0 mi WNW 16.1 mph - N/A   Clear
11:55 AM 50.0 °F - 23.4 °F 35% 30.12 in 10.0 mi WNW 16.1 mph - N/A   Clear
12:15 PM 51.4 °F - 23.0 °F 33% 30.11 in 10.0 mi WNW 15.0 mph - N/A   Clear
12:35 PM 55.4 °F - 22.5 °F 28% 30.11 in 10.0 mi NNW 17.3 mph - N/A   Clear
12:55 PM 56.7 °F - 21.9 °F 26% 30.10 in 10.0 mi NNW 17.3 mph 28.8 mph N/A   Clear
1:55 PM 57.6 °F - 20.1 °F 23% 30.10 in 10.0 mi NW 19.6 mph 25.3 mph N/A   Clear
2:15 PM 58.3 °F - 19.0 °F 22% 30.10 in 10.0 mi NW 20.7 mph 25.3 mph N/A   Clear
2:35 PM 58.3 °F - 18.7 °F 21% 30.10 in 10.0 mi NW 18.4 mph 23.0 mph N/A   Clear
2:55 PM 57.7 °F - 19.0 °F 22% 30.11 in 10.0 mi NW 21.9 mph 27.6 mph N/A   Clear
3:15 PM 57.4 °F - 19.4 °F 23% 30.11 in 10.0 mi NW 20.7 mph 28.8 mph N/A   Clear
3:35 PM 57.4 °F - 19.0 °F 22% 30.11 in 10.0 mi NNW 21.9 mph 27.6 mph N/A   Clear
3:55 PM 56.8 °F - 19.4 °F 23% 30.12 in 10.0 mi NNW 19.6 mph 26.5 mph N/A   Clear
4:15 PM 55.4 °F - 19.2 °F 24% 30.13 in 10.0 mi North 18.4 mph - N/A   Clear
4:35 PM 54.5 °F - 19.4 °F 25% 30.13 in 10.0 mi North 16.1 mph - N/A   Clear
4:55 PM 52.5 °F - 19.6 °F 27% 30.14 in 10.0 mi North 11.5 mph - N/A   Clear
5:15 PM 49.6 °F - 19.6 °F 31% 30.15 in 10.0 mi North 9.2 mph - N/A   Clear
5:35 PM 44.8 °F 40.4 °F 19.4 °F 36% 30.16 in 10.0 mi North 8.1 mph - N/A   Clear
5:55 PM 39.9 °F 35.1 °F 19.4 °F 44% 30.17 in 10.0 mi NNE 6.9 mph - N/A   Clear
6:15 PM 39.4 °F 33.8 °F 19.4 °F 45% 30.18 in 10.0 mi North 8.1 mph - N/A   Clear
6:35 PM 38.7 °F 33.6 °F 21.0 °F 49% 30.19 in 10.0 mi NNE 6.9 mph - N/A   Clear
6:55 PM 36.0 °F 30.3 °F 20.7 °F 54% 30.20 in 10.0 mi North 6.9 mph - N/A   Clear
7:15 PM 33.1 °F 26.1 °F 21.2 °F 62% 30.20 in 10.0 mi North 8.1 mph - N/A   Clear
7:35 PM 33.3 °F 30.2 °F 21.7 °F 63% 30.22 in 10.0 mi NW 3.5 mph - N/A   Clear
7:55 PM 33.8 °F 30.8 °F 20.7 °F 59% 30.22 in 10.0 mi West 3.5 mph - N/A   Clear
8:15 PM 31.3 °F 25.6 °F 21.6 °F 67% 30.23 in 10.0 mi NW 5.8 mph - N/A   Clear
8:35 PM 29.7 °F 24.7 °F 21.6 °F 72% 30.24 in 10.0 mi NW 4.6 mph - N/A   Clear
8:55 PM 28.0 °F 20.8 °F 20.8 °F 74% 30.25 in 10.0 mi North 6.9 mph - N/A   Clear
9:15 PM 27.9 °F 20.6 °F 21.0 °F 75% 30.25 in 10.0 mi North 6.9 mph - N/A   Clear
9:35 PM 28.4 °F 19.1 °F 22.5 °F 78% 30.25 in 10.0 mi North 10.4 mph - N/A   Clear
9:55 PM 28.6 °F 21.5 °F 22.6 °F 78% 30.25 in 10.0 mi NNE 6.9 mph - N/A   Clear
10:15 PM 29.3 °F - 22.8 °F 77% 30.25 in 10.0 mi Calm Calm - N/A   Clear
10:35 PM 27.0 °F - 22.1 °F 82% 30.26 in 10.0 mi Calm Calm - N/A   Clear
10:55 PM 28.0 °F 20.8 °F 21.7 °F 77% 30.26 in 10.0 mi NNE 6.9 mph - N/A   Clear
11:15 PM 28.2 °F 24.4 °F 22.8 °F 80% 30.27 in 10.0 mi ENE 3.5 mph - N/A   Clear
11:35 PM 28.9 °F 22.8 °F 23.9 °F 81% 30.27 in 10.0 mi ENE 5.8 mph - N/A   Clear